createdAt,value
2023-03-14T00:00:33.550Z,98373.25
2023-03-14T00:03:04.164Z,98383.34
2023-03-14T00:05:32.681Z,98393.47
2023-03-14T00:08:02.080Z,98398.94
2023-03-14T00:10:29.960Z,98391.22
2023-03-14T00:12:57.708Z,98400.47
2023-03-14T00:15:25.519Z,98421.69
2023-03-14T00:17:53.315Z,98413.66
2023-03-14T00:20:21.281Z,98395.38
2023-03-14T00:22:50.952Z,98395.66
2023-03-14T00:25:20.191Z,98380.19
2023-03-14T00:27:47.866Z,98402.41
2023-03-14T00:30:23.760Z,98381.81
2023-03-14T00:33:11.462Z,98392.78
2023-03-14T00:35:39.844Z,98383.09
2023-03-14T00:38:07.883Z,98378.72
2023-03-14T00:40:44.581Z,98382.38
2023-03-14T00:46:11.476Z,98379.44
2023-03-14T00:48:56.379Z,98377.47
2023-03-14T00:51:24.680Z,98345.03
2023-03-14T00:56:39.923Z,98293.44
2023-03-14T00:59:08.056Z,98289.09
2023-03-14T01:01:35.892Z,98261.00
2023-03-14T01:04:04.439Z,98246.09
2023-03-14T01:06:35.022Z,98255.78
2023-03-14T01:09:04.477Z,98256.50
2023-03-14T01:11:34.015Z,98245.69
2023-03-14T01:14:04.396Z,98237.09
2023-03-14T01:16:35.767Z,98253.13
2023-03-14T01:19:04.122Z,98240.34
2023-03-14T01:21:37.041Z,98226.53
2023-03-14T01:24:09.696Z,98267.03
2023-03-14T01:26:40.514Z,98292.59
2023-03-14T01:29:10.210Z,98295.38
2023-03-14T01:31:41.640Z,98301.31
2023-03-14T01:34:09.675Z,98292.59
2023-03-14T01:36:37.994Z,98290.22
2023-03-14T01:39:07.127Z,98286.72
2023-03-14T01:41:35.628Z,98285.13
2023-03-14T01:44:03.862Z,98272.78
2023-03-14T01:46:38.323Z,98267.44
2023-03-14T01:49:21.211Z,98277.53
2023-03-14T01:55:39.011Z,98262.94
2023-03-14T01:58:07.587Z,98250.00
2023-03-14T02:00:35.505Z,98255.06
2023-03-14T02:03:12.239Z,98252.25
2023-03-14T02:05:42.690Z,98254.09
2023-03-14T02:08:13.641Z,98256.75
2023-03-14T02:10:45.189Z,98261.41
2023-03-14T02:13:16.241Z,98242.84
2023-03-14T02:15:44.498Z,98231.50
2023-03-14T02:18:16.104Z,98241.06
2023-03-14T02:20:51.070Z,98209.84
2023-03-14T02:23:31.391Z,98205.34
2023-03-14T02:26:10.607Z,98203.81
2023-03-14T02:28:40.369Z,98217.16
2023-03-14T02:31:09.536Z,98204.78
2023-03-14T02:33:39.577Z,98200.56
2023-03-14T02:36:12.020Z,98198.72
2023-03-14T02:38:48.025Z,98187.50
2023-03-14T02:41:16.074Z,98203.09
2023-03-14T02:43:47.233Z,98176.97
2023-03-14T02:46:20.505Z,98181.59
2023-03-14T02:48:54.346Z,98184.53
2023-03-14T02:51:27.438Z,98170.91
2023-03-14T02:54:08.448Z,98173.69
2023-03-14T02:56:36.241Z,98204.44
2023-03-14T02:59:07.127Z,98205.88
2023-03-14T03:01:35.422Z,98193.50
2023-03-14T03:04:08.933Z,98187.63
2023-03-14T03:06:36.628Z,98191.97
2023-03-14T03:09:04.736Z,98175.53
2023-03-14T03:11:33.030Z,98180.25
2023-03-14T03:14:03.336Z,98189.94
2023-03-14T03:16:33.993Z,98186.41
2023-03-14T03:22:51.210Z,98188.53
2023-03-14T03:25:20.525Z,98208.03
2023-03-14T03:30:58.393Z,98215.91
2023-03-14T03:33:50.425Z,98214.78
2023-03-14T03:36:41.153Z,98189.25
2023-03-14T03:39:07.180Z,98181.38
2023-03-14T03:42:45.906Z,98158.78
2023-03-14T03:51:19.885Z,98129.69
2023-03-14T03:53:49.675Z,98126.91
2023-03-14T03:56:22.431Z,98125.50
2023-03-14T03:58:52.524Z,98103.91
2023-03-14T04:05:17.799Z,98089.03
2023-03-14T04:07:49.755Z,98073.03
2023-03-14T04:14:05.921Z,98061.50
2023-03-14T04:19:29.070Z,98032.03
2023-03-14T04:21:58.770Z,98040.88
2023-03-14T04:24:28.405Z,98009.28
2023-03-14T04:26:56.591Z,97983.63
2023-03-14T04:29:24.616Z,97976.47
2023-03-14T04:31:52.559Z,97981.50
2023-03-14T04:34:20.629Z,97967.47
2023-03-14T04:36:48.643Z,97953.16
2023-03-14T04:45:01.545Z,97910.78
2023-03-14T04:50:22.328Z,97874.31
2023-03-14T04:52:50.371Z,97866.31
2023-03-14T04:55:18.688Z,97858.88
2023-03-14T04:57:48.272Z,97886.38
2023-03-14T05:00:19.550Z,97882.44
2023-03-14T05:02:47.932Z,97874.88
2023-03-14T05:05:16.059Z,97881.03
2023-03-14T05:07:44.017Z,97871.38
2023-03-14T05:10:27.082Z,97887.75
2023-03-14T05:12:57.699Z,97879.06
2023-03-14T05:15:26.163Z,97868.13
2023-03-14T05:17:55.358Z,97851.00
2023-03-14T05:20:26.849Z,97852.41
2023-03-14T05:22:54.779Z,97854.38
2023-03-14T05:25:24.143Z,97856.34
2023-03-14T05:27:52.318Z,97882.72
2023-03-14T05:30:22.545Z,97876.28
2023-03-14T05:32:50.898Z,97850.03
2023-03-14T05:35:33.402Z,97833.75
2023-03-14T05:38:03.461Z,97828.69
2023-03-14T05:40:33.300Z,97815.47
2023-03-14T05:43:03.478Z,97805.50
2023-03-14T05:45:47.630Z,97796.41
2023-03-14T05:48:15.741Z,97794.72
2023-03-14T05:50:43.656Z,97793.19
2023-03-14T05:53:11.480Z,97800.47
2023-03-14T05:55:41.852Z,97800.19
2023-03-14T05:58:09.712Z,97800.03
2023-03-14T06:00:38.961Z,97787.00
2023-03-14T06:03:07.759Z,97777.06
2023-03-14T06:05:35.726Z,97768.03
2023-03-14T06:08:03.462Z,97765.38
2023-03-14T06:10:31.368Z,97762.28
2023-03-14T06:12:59.196Z,97762.16
2023-03-14T06:15:27.143Z,97748.84
2023-03-14T06:17:57.458Z,97730.03
2023-03-14T06:20:25.329Z,97726.94
2023-03-14T06:22:53.191Z,97729.28
2023-03-14T06:25:21.346Z,97716.34
2023-03-14T06:27:49.168Z,97714.59
2023-03-14T06:30:17.513Z,97706.28
2023-03-14T06:32:45.442Z,97718.22
2023-03-14T06:35:14.527Z,97735.03
2023-03-14T06:37:43.177Z,97725.56
2023-03-14T06:40:13.679Z,97707.25
2023-03-14T06:42:41.640Z,97691.66
2023-03-14T06:45:10.698Z,97687.84
2023-03-14T06:47:39.130Z,97690.03
2023-03-14T06:50:10.687Z,97668.09
2023-03-14T06:52:42.175Z,97670.13
2023-03-14T06:55:10.637Z,97668.81
2023-03-14T06:57:38.466Z,97676.09
2023-03-14T07:00:07.760Z,97729.25
2023-03-14T07:02:42.608Z,97716.72
2023-03-14T07:05:11.645Z,97692.06
2023-03-14T07:07:40.716Z,97567.34
2023-03-14T07:10:10.287Z,97521.59
2023-03-14T07:12:42.125Z,97529.28
2023-03-14T07:15:19.383Z,97533.06
2023-03-14T07:17:49.807Z,97537.81
2023-03-14T07:20:18.864Z,97600.47
2023-03-14T07:22:57.012Z,97826.19
2023-03-14T07:25:40.623Z,97760.72
2023-03-14T07:28:14.757Z,97652.06
2023-03-14T07:31:07.775Z,97555.47
2023-03-14T07:33:37.439Z,97501.28
2023-03-14T07:36:12.368Z,97708.31
2023-03-14T07:38:43.279Z,97536.00
2023-03-14T07:41:13.875Z,97573.09
2023-03-14T07:43:49.122Z,97543.66
2023-03-14T07:46:22.823Z,97578.72
2023-03-14T07:48:55.009Z,97663.28
2023-03-14T07:51:35.269Z,97573.84
2023-03-14T07:54:13.805Z,97471.97
2023-03-14T07:56:43.187Z,97407.84
2023-03-14T07:59:24.202Z,97243.09
2023-03-14T08:02:00.461Z,97191.69
2023-03-14T08:04:30.172Z,97230.34
2023-03-14T08:06:59.662Z,97283.44
2023-03-14T08:09:35.000Z,97325.63
2023-03-14T08:12:07.945Z,97396.78
2023-03-14T08:14:42.764Z,97436.84
2023-03-14T08:17:16.735Z,97364.34
2023-03-14T08:19:45.668Z,97314.19
2023-03-14T08:22:14.722Z,97369.84
2023-03-14T08:24:50.879Z,97383.44
2023-03-14T08:27:27.909Z,97455.22
2023-03-14T08:29:59.699Z,97373.25
2023-03-14T08:32:33.932Z,97343.00
2023-03-14T08:35:12.031Z,97321.69
2023-03-14T08:37:46.798Z,97274.22
2023-03-14T08:40:21.704Z,97340.53
2023-03-14T08:42:53.854Z,97327.19
2023-03-14T08:45:35.358Z,97352.41
2023-03-14T08:48:35.499Z,97207.47
2023-03-14T08:51:26.239Z,97275.19
2023-03-14T08:53:59.062Z,97336.13
2023-03-14T08:56:28.581Z,97300.78
2023-03-14T08:58:56.636Z,97389.16
2023-03-14T09:01:26.163Z,97403.34
2023-03-14T09:03:54.192Z,97309.69
2023-03-14T09:06:22.244Z,97434.06
2023-03-14T09:08:50.424Z,97362.34
2023-03-14T09:11:19.690Z,97412.19
2023-03-14T09:13:49.741Z,97431.97
2023-03-14T09:16:17.828Z,97380.28
2023-03-14T09:18:45.850Z,97300.59
2023-03-14T09:21:13.564Z,97213.03
2023-03-14T09:23:41.653Z,97168.16
2023-03-14T09:26:09.971Z,97160.22
2023-03-14T09:28:38.470Z,97160.47
2023-03-14T09:31:12.461Z,97137.56
2023-03-14T09:33:40.586Z,97142.28
2023-03-14T09:36:09.726Z,97154.66
2023-03-14T09:38:37.727Z,97202.91
2023-03-14T09:41:16.614Z,97263.19
2023-03-14T09:43:46.703Z,97239.34
2023-03-14T09:46:17.226Z,97185.72
2023-03-14T09:48:46.342Z,97175.00
2023-03-14T09:51:18.534Z,97129.59
2023-03-14T09:53:48.497Z,97091.31
2023-03-14T09:56:21.095Z,97098.16
2023-03-14T09:58:53.112Z,97156.59
2023-03-14T10:01:26.940Z,97193.22
2023-03-14T10:03:58.333Z,97140.88
2023-03-14T10:06:32.291Z,97219.34
2023-03-14T10:09:00.447Z,97174.94
2023-03-14T10:11:28.509Z,97170.50
2023-03-14T10:14:09.121Z,97150.31
2023-03-14T10:16:42.535Z,97210.56
2023-03-14T10:19:14.123Z,97214.28
2023-03-14T10:21:43.668Z,97203.03
2023-03-14T10:24:20.285Z,97196.63
2023-03-14T10:26:52.187Z,97160.47
2023-03-14T10:29:20.026Z,97182.13
2023-03-14T10:31:54.868Z,97171.75
2023-03-14T10:34:27.907Z,97251.88
2023-03-14T10:36:57.776Z,97186.63
2023-03-14T10:39:32.308Z,97169.00
2023-03-14T10:42:06.613Z,97190.06
2023-03-14T10:44:36.434Z,97140.06
2023-03-14T10:47:06.674Z,97164.97
2023-03-14T10:49:36.556Z,97172.25
2023-03-14T10:52:16.456Z,97162.94
2023-03-14T10:54:49.206Z,97142.31
2023-03-14T10:57:17.033Z,97181.97
2023-03-14T10:59:45.489Z,97160.81
2023-03-14T11:02:33.482Z,97112.94
2023-03-14T11:05:09.957Z,97119.66
2023-03-14T11:07:42.066Z,97083.69
2023-03-14T11:10:25.012Z,97126.34
2023-03-14T11:13:07.727Z,97108.03
2023-03-14T11:15:38.776Z,97133.88
2023-03-14T11:18:38.202Z,97129.34
2023-03-14T11:21:13.979Z,97201.75
2023-03-14T11:23:46.824Z,97247.44
2023-03-14T11:26:27.587Z,97244.75
2023-03-14T11:28:59.949Z,97305.69
2023-03-14T11:31:29.721Z,97277.53
2023-03-14T11:34:07.667Z,97214.19
2023-03-14T11:36:40.584Z,97206.75
2023-03-14T11:39:14.714Z,97142.03
2023-03-14T11:41:45.123Z,97152.22
2023-03-14T11:44:20.770Z,97134.38
2023-03-14T11:46:54.074Z,97153.56
2023-03-14T11:49:34.677Z,97133.75
2023-03-14T11:52:07.877Z,97141.41
2023-03-14T11:54:43.878Z,97128.00
2023-03-14T11:57:16.152Z,97156.50
2023-03-14T11:59:52.008Z,97122.09
2023-03-14T12:02:27.825Z,97229.63
2023-03-14T12:05:26.272Z,97279.97
2023-03-14T12:08:21.452Z,97300.22
2023-03-14T12:10:54.200Z,97297.19
2023-03-14T12:13:22.483Z,97303.31
2023-03-14T12:15:55.828Z,97293.06
2023-03-14T12:18:29.705Z,97230.66
2023-03-14T12:21:01.948Z,97251.28
2023-03-14T12:23:37.127Z,97215.13
2023-03-14T12:26:19.438Z,97293.00
2023-03-14T12:28:52.071Z,97320.16
2023-03-14T12:31:43.255Z,97341.63
2023-03-14T12:34:33.205Z,97258.34
2023-03-14T12:37:20.106Z,97169.16
2023-03-14T12:40:00.685Z,97146.25
2023-03-14T12:42:46.061Z,97320.72
2023-03-14T12:45:25.341Z,97262.72
2023-03-14T12:48:10.563Z,97207.22
2023-03-14T12:50:44.290Z,97221.56
2023-03-14T12:54:00.203Z,97295.16
2023-03-14T12:56:49.106Z,97185.91
2023-03-14T12:59:35.008Z,97237.97
2023-03-14T13:02:05.684Z,97219.69
2023-03-14T13:04:40.180Z,97223.50
2023-03-14T13:07:13.788Z,97096.88
2023-03-14T13:10:03.794Z,97141.22
2023-03-14T13:12:39.317Z,97135.59
2023-03-14T13:15:20.351Z,97135.69
2023-03-14T13:17:50.132Z,97183.31
2023-03-14T13:20:23.921Z,97158.81
2023-03-14T13:22:51.987Z,97185.94
2023-03-14T13:25:22.922Z,97150.13
2023-03-14T13:27:51.672Z,97124.13
2023-03-14T13:30:25.325Z,97207.38
2023-03-14T13:32:54.770Z,97266.31
2023-03-14T13:35:25.858Z,97253.88
2023-03-14T13:38:17.852Z,97190.91
2023-03-14T13:40:48.529Z,97144.25
2023-03-14T13:43:20.952Z,97102.13
2023-03-14T13:45:52.802Z,97129.63
2023-03-14T13:48:21.497Z,97142.22
2023-03-14T13:50:53.776Z,97155.81
2023-03-14T13:53:22.023Z,97123.78
2023-03-14T13:55:51.536Z,97085.13
2023-03-14T13:58:25.017Z,97073.56
2023-03-14T14:01:08.294Z,97056.53
2023-03-14T14:03:40.674Z,97167.97
2023-03-14T14:06:13.149Z,97231.94
2023-03-14T14:08:44.443Z,97214.06
2023-03-14T14:11:20.455Z,97120.72
2023-03-14T14:13:48.549Z,97176.88
2023-03-14T14:16:22.114Z,97129.03
2023-03-14T14:18:50.277Z,97007.72
2023-03-14T14:21:18.265Z,96985.88
2023-03-14T14:23:46.269Z,96981.59
2023-03-14T14:26:19.830Z,96950.66
2023-03-14T14:28:50.314Z,97028.38
2023-03-14T14:31:24.033Z,97082.13
2023-03-14T14:33:59.980Z,97083.22
2023-03-14T14:36:32.003Z,97057.06
2023-03-14T14:39:02.081Z,97069.56
2023-03-14T14:41:37.111Z,97090.03
2023-03-14T14:44:06.327Z,96770.50
2023-03-14T14:46:38.040Z,96935.28
2023-03-14T14:49:10.990Z,97220.00
2023-03-14T14:51:44.126Z,97477.69
2023-03-14T14:54:17.858Z,97682.69
2023-03-14T14:56:52.642Z,97817.44
2023-03-14T14:59:28.498Z,97933.19
2023-03-14T15:02:00.839Z,98023.06
2023-03-14T15:04:31.865Z,98142.94
2023-03-14T15:06:59.727Z,98213.25
2023-03-14T15:09:27.768Z,98259.16
2023-03-14T15:11:56.865Z,98372.88
2023-03-14T15:14:24.673Z,98353.34
2023-03-14T15:16:52.969Z,98279.19
2023-03-14T15:19:25.035Z,98298.94
2023-03-14T15:21:53.344Z,98273.94
2023-03-14T15:24:21.256Z,98287.59
2023-03-14T15:26:49.003Z,98338.69
2023-03-14T15:29:18.579Z,98367.13
2023-03-14T15:31:46.411Z,98386.16
2023-03-14T15:34:14.273Z,98372.72
2023-03-14T15:36:42.056Z,98392.16
2023-03-14T15:39:12.230Z,98461.13
2023-03-14T15:41:40.039Z,98483.75
2023-03-14T15:44:07.822Z,98530.19
2023-03-14T15:46:36.915Z,98614.94
2023-03-14T15:49:04.711Z,98642.59
2023-03-14T15:51:33.157Z,98669.88
2023-03-14T15:54:00.893Z,98681.03
2023-03-14T15:56:31.824Z,98737.88
2023-03-14T15:58:59.888Z,98765.75
2023-03-14T16:01:27.789Z,98824.06
2023-03-14T16:03:57.241Z,98836.97
2023-03-14T16:06:25.045Z,98861.38
2023-03-14T16:08:52.837Z,98888.50
2023-03-14T16:11:22.764Z,98908.63
2023-03-14T16:13:51.360Z,98940.84
2023-03-14T16:16:19.177Z,98953.75
2023-03-14T16:18:47.055Z,98961.59
2023-03-14T16:21:18.048Z,98957.03
2023-03-14T16:23:46.064Z,98997.06
2023-03-14T16:26:16.622Z,98988.03
2023-03-14T16:28:45.379Z,99019.97
2023-03-14T16:31:16.334Z,99018.28
2023-03-14T16:33:44.653Z,99016.69
2023-03-14T16:36:14.023Z,99038.31
2023-03-14T16:38:45.230Z,99027.78
2023-03-14T16:41:14.836Z,99041.38
2023-03-14T16:43:43.112Z,99001.44
2023-03-14T16:46:15.036Z,99025.91
2023-03-14T16:48:42.771Z,99076.88
2023-03-14T16:51:10.766Z,99043.38
2023-03-14T16:53:38.591Z,99077.22
2023-03-14T16:56:08.930Z,99085.03
2023-03-14T16:58:36.997Z,99099.59
2023-03-14T17:01:10.482Z,99096.19
2023-03-14T17:03:39.320Z,99103.97
2023-03-14T17:06:08.905Z,99118.84
2023-03-14T17:08:36.728Z,99124.97
2023-03-14T17:11:04.570Z,99154.56
2023-03-14T17:13:33.726Z,99151.88
2023-03-14T17:16:02.831Z,99151.81
2023-03-14T17:18:32.254Z,99154.16
2023-03-14T17:21:00.978Z,99146.13
2023-03-14T17:23:30.309Z,99150.41
2023-03-14T17:26:01.314Z,99183.59
2023-03-14T17:28:33.837Z,99174.94
2023-03-14T17:31:10.947Z,99212.25
2023-03-14T17:33:38.789Z,99210.34
2023-03-14T17:36:07.816Z,99225.22
2023-03-14T17:38:35.949Z,99254.84
2023-03-14T17:41:03.902Z,99282.66
2023-03-14T17:43:32.323Z,99259.91
2023-03-14T17:46:01.506Z,99290.47
2023-03-14T17:48:30.752Z,99282.41
2023-03-14T17:51:01.986Z,99301.88
2023-03-14T17:53:30.895Z,99326.66
2023-03-14T17:55:59.015Z,99351.25
2023-03-14T17:58:27.965Z,99368.81
2023-03-14T18:00:56.825Z,99390.63
2023-03-14T18:03:25.065Z,99373.28
2023-03-14T18:05:56.727Z,99392.75
2023-03-14T18:08:24.528Z,99403.28
2023-03-14T18:10:55.695Z,99410.41
2023-03-14T18:13:23.466Z,99423.66
2023-03-14T18:15:52.208Z,99444.56
2023-03-14T18:18:22.157Z,99459.59
2023-03-14T18:20:51.776Z,99480.56
2023-03-14T18:23:25.007Z,99491.88
2023-03-14T18:26:12.386Z,99494.69
2023-03-14T18:28:41.095Z,99529.56
2023-03-14T18:31:10.277Z,99489.38
2023-03-14T18:33:41.621Z,99497.94
2023-03-14T18:36:11.086Z,99463.09
2023-03-14T18:38:43.756Z,99476.09
2023-03-14T18:41:14.076Z,99456.97
2023-03-14T18:43:42.088Z,99441.19
2023-03-14T18:46:10.472Z,99445.31
2023-03-14T18:48:42.185Z,99423.41
2023-03-14T18:51:11.653Z,99416.16
2023-03-14T18:53:42.137Z,99399.03
2023-03-14T18:56:12.796Z,99353.25
2023-03-14T18:58:42.270Z,99328.66
2023-03-14T19:01:13.194Z,99296.06
2023-03-14T19:03:42.222Z,99252.03
2023-03-14T19:06:13.364Z,99223.97
2023-03-14T19:08:43.207Z,99185.38
2023-03-14T19:11:13.079Z,99168.56
2023-03-14T19:13:47.134Z,99146.66
2023-03-14T19:16:16.396Z,99126.53
2023-03-14T19:18:44.292Z,99109.78
2023-03-14T19:21:13.866Z,99081.84
2023-03-14T19:23:48.815Z,99066.25
2023-03-14T19:26:16.567Z,99059.16
2023-03-14T19:28:44.364Z,99000.78
2023-03-14T19:31:12.131Z,99000.91
2023-03-14T19:33:40.277Z,98983.66
2023-03-14T19:36:09.156Z,98994.66
2023-03-14T19:38:37.990Z,99031.84
2023-03-14T19:41:07.343Z,99062.78
2023-03-14T19:43:35.245Z,99073.56
2023-03-14T19:46:05.358Z,99095.50
2023-03-14T19:48:33.049Z,99090.25
2023-03-14T19:51:01.615Z,99077.06
2023-03-14T19:53:29.443Z,99074.44
2023-03-14T19:55:57.183Z,99054.19
2023-03-14T19:58:26.383Z,99021.78
2023-03-14T20:00:54.187Z,99013.00
2023-03-14T20:03:23.675Z,99002.56
2023-03-14T20:05:53.077Z,98970.41
2023-03-14T20:08:21.657Z,98960.03
2023-03-14T20:10:49.624Z,98993.50
2023-03-14T20:13:21.826Z,98981.50
2023-03-14T20:15:53.901Z,98985.22
2023-03-14T20:18:23.462Z,99007.97
2023-03-14T20:20:52.103Z,99027.47
2023-03-14T20:23:19.882Z,99024.94
2023-03-14T20:25:54.244Z,99036.31
2023-03-14T20:28:22.137Z,99018.09
2023-03-14T20:30:51.444Z,99032.25
2023-03-14T20:33:19.824Z,99053.22
2023-03-14T20:35:51.160Z,99057.59
2023-03-14T20:38:19.018Z,99026.97
2023-03-14T20:40:47.131Z,99027.78
2023-03-14T20:43:14.900Z,99010.38
2023-03-14T20:45:42.598Z,99017.50
2023-03-14T20:48:11.670Z,99006.31
2023-03-14T20:50:39.390Z,99017.69
2023-03-14T20:53:07.130Z,98988.84
2023-03-14T20:55:34.936Z,98987.06
2023-03-14T20:58:03.017Z,98968.91
2023-03-14T21:00:30.700Z,98963.00
2023-03-14T21:02:58.407Z,98962.06
2023-03-14T21:05:27.654Z,98962.06
2023-03-14T21:07:55.555Z,98961.91
2023-03-14T21:10:23.260Z,98925.91
2023-03-14T21:12:51.027Z,98906.56
2023-03-14T21:15:18.765Z,98883.69
2023-03-14T21:17:46.528Z,98890.59
2023-03-14T21:20:14.571Z,98862.72
2023-03-14T21:22:43.660Z,98870.94
2023-03-14T21:25:12.341Z,98863.47
2023-03-14T21:27:40.750Z,98904.22
2023-03-14T21:30:10.588Z,98929.81
2023-03-14T21:32:38.396Z,98947.50
2023-03-14T21:35:06.774Z,98952.19
2023-03-14T21:37:34.602Z,98982.06
2023-03-14T21:40:03.950Z,98986.63
2023-03-14T21:42:32.388Z,99007.78
2023-03-14T21:45:00.177Z,99016.38
2023-03-14T21:47:28.509Z,99015.59
2023-03-14T21:49:56.520Z,99028.63
2023-03-14T21:52:24.488Z,99031.13
2023-03-14T21:54:52.311Z,99029.50
2023-03-14T21:57:21.434Z,99026.84
2023-03-14T21:59:49.231Z,99021.41
2023-03-14T22:02:20.680Z,99028.50
2023-03-14T22:04:49.125Z,99025.06
2023-03-14T22:07:19.008Z,99041.81
2023-03-14T22:09:48.201Z,99055.00
2023-03-14T22:12:19.205Z,99053.47
2023-03-14T22:14:49.026Z,99072.81
2023-03-14T22:17:17.221Z,99093.03
2023-03-14T22:19:45.158Z,99110.50
2023-03-14T22:22:13.075Z,99106.34
2023-03-14T22:24:40.838Z,99113.50
2023-03-14T22:27:08.597Z,99123.22
2023-03-14T22:29:37.582Z,99134.72
2023-03-14T22:32:08.089Z,99149.72
2023-03-14T22:34:35.990Z,99156.81
2023-03-14T22:37:07.680Z,99175.34
2023-03-14T22:39:35.941Z,99172.03
2023-03-14T22:42:03.671Z,99198.22
2023-03-14T22:44:32.770Z,99217.44
2023-03-14T22:47:01.445Z,99224.31
2023-03-14T22:49:32.274Z,99231.38
2023-03-14T22:52:00.114Z,99244.47
2023-03-14T22:54:28.004Z,99258.44
2023-03-14T22:56:55.778Z,99267.28
2023-03-14T22:59:23.573Z,99294.53
2023-03-14T23:01:51.367Z,99306.03
2023-03-14T23:04:19.103Z,99298.38
2023-03-14T23:06:48.281Z,99309.22
2023-03-14T23:09:16.134Z,99327.75
2023-03-14T23:11:44.068Z,99348.84
2023-03-14T23:14:11.960Z,99368.94
2023-03-14T23:16:40.989Z,99361.16
2023-03-14T23:19:10.751Z,99383.88
2023-03-14T23:21:38.507Z,99377.06
2023-03-14T23:24:08.545Z,99379.72
2023-03-14T23:26:36.661Z,99390.41
2023-03-14T23:29:06.354Z,99397.50
2023-03-14T23:31:34.309Z,99417.72
2023-03-14T23:34:02.176Z,99430.09
2023-03-14T23:36:30.387Z,99437.97
2023-03-14T23:38:58.400Z,99467.75
2023-03-14T23:41:27.633Z,99467.78
2023-03-14T23:43:55.465Z,99488.81
2023-03-14T23:46:23.432Z,99507.19
2023-03-14T23:48:51.277Z,99509.00
2023-03-14T23:51:19.099Z,99530.84
2023-03-14T23:53:47.048Z,99522.25
2023-03-14T23:56:18.920Z,99550.28
2023-03-14T23:58:48.104Z,99533.84
